sensor_id;sensor_type;location;lat;lon;timestamp;P1;durP1;ratioP1;P2;durP2;ratioP2
58982;SDS011;44771;49.982;8.560;2023-02-28T00:04:36;17.00;;;15.98;;
58982;SDS011;44771;49.982;8.560;2023-02-28T00:09:39;18.67;;;17.35;;
58982;SDS011;44771;49.982;8.560;2023-02-28T00:14:41;19.05;;;17.67;;
58982;SDS011;44771;49.982;8.560;2023-02-28T00:19:42;18.15;;;17.02;;
58982;SDS011;44771;49.982;8.560;2023-02-28T00:24:45;17.12;;;15.98;;
58982;SDS011;44771;49.982;8.560;2023-02-28T00:29:48;17.67;;;16.47;;
58982;SDS011;44771;49.982;8.560;2023-02-28T00:34:49;17.05;;;15.95;;
58982;SDS011;44771;49.982;8.560;2023-02-28T00:39:52;16.67;;;15.50;;
58982;SDS011;44771;49.982;8.560;2023-02-28T00:44:57;17.40;;;15.85;;
58982;SDS011;44771;49.982;8.560;2023-02-28T00:49:59;17.73;;;16.33;;
58982;SDS011;44771;49.982;8.560;2023-02-28T00:55:02;16.87;;;15.48;;
58982;SDS011;44771;49.982;8.560;2023-02-28T01:00:05;16.70;;;15.53;;
58982;SDS011;44771;49.982;8.560;2023-02-28T01:05:08;16.25;;;15.13;;
58982;SDS011;44771;49.982;8.560;2023-02-28T01:10:11;17.00;;;15.80;;
58982;SDS011;44771;49.982;8.560;2023-02-28T01:15:13;18.60;;;17.30;;
58982;SDS011;44771;49.982;8.560;2023-02-28T01:20:15;17.27;;;16.08;;
58982;SDS011;44771;49.982;8.560;2023-02-28T01:25:18;18.17;;;16.92;;
58982;SDS011;44771;49.982;8.560;2023-02-28T01:30:20;16.95;;;15.75;;
58982;SDS011;44771;49.982;8.560;2023-02-28T01:35:22;18.95;;;17.65;;
58982;SDS011;44771;49.982;8.560;2023-02-28T01:40:25;18.12;;;16.73;;
58982;SDS011;44771;49.982;8.560;2023-02-28T01:45:27;17.58;;;16.23;;
58982;SDS011;44771;49.982;8.560;2023-02-28T01:50:31;17.30;;;15.90;;
58982;SDS011;44771;49.982;8.560;2023-02-28T01:55:37;18.17;;;16.77;;
58982;SDS011;44771;49.982;8.560;2023-02-28T02:00:41;16.58;;;15.27;;
58982;SDS011;44771;49.982;8.560;2023-02-28T02:05:43;18.60;;;17.12;;
58982;SDS011;44771;49.982;8.560;2023-02-28T02:10:46;18.12;;;16.60;;
58982;SDS011;44771;49.982;8.560;2023-02-28T02:15:54;18.73;;;17.12;;
58982;SDS011;44771;49.982;8.560;2023-02-28T02:21:18;18.20;;;16.85;;
58982;SDS011;44771;49.982;8.560;2023-02-28T02:26:54;20.88;;;19.17;;
58982;SDS011;44771;49.982;8.560;2023-02-28T02:32:10;20.05;;;18.55;;
58982;SDS011;44771;49.982;8.560;2023-02-28T02:37:24;20.05;;;18.55;;
58982;SDS011;44771;49.982;8.560;2023-02-28T02:42:31;19.73;;;18.02;;
58982;SDS011;44771;49.982;8.560;2023-02-28T02:47:40;19.23;;;17.30;;
58982;SDS011;44771;49.982;8.560;2023-02-28T02:52:46;18.27;;;16.80;;
58982;SDS011;44771;49.982;8.560;2023-02-28T02:57:53;17.48;;;16.05;;
58982;SDS011;44771;49.982;8.560;2023-02-28T03:02:59;20.42;;;18.45;;
58982;SDS011;44771;49.982;8.560;2023-02-28T03:08:04;20.25;;;18.52;;
58982;SDS011;44771;49.982;8.560;2023-02-28T03:13:17;18.95;;;17.45;;
58982;SDS011;44771;49.982;8.560;2023-02-28T03:18:42;19.73;;;17.50;;
58982;SDS011;44771;49.982;8.560;2023-02-28T03:23:56;19.58;;;17.80;;
58982;SDS011;44771;49.982;8.560;2023-02-28T03:29:05;18.27;;;16.87;;
58982;SDS011;44771;49.982;8.560;2023-02-28T03:34:13;20.60;;;18.80;;
58982;SDS011;44771;49.982;8.560;2023-02-28T03:39:22;19.50;;;17.90;;
58982;SDS011;44771;49.982;8.560;2023-02-28T03:44:28;18.70;;;16.98;;
58982;SDS011;44771;49.982;8.560;2023-02-28T03:49:35;18.73;;;17.02;;
58982;SDS011;44771;49.982;8.560;2023-02-28T03:54:42;19.25;;;17.65;;
58982;SDS011;44771;49.982;8.560;2023-02-28T03:59:49;19.67;;;18.08;;
58982;SDS011;44771;49.982;8.560;2023-02-28T04:04:57;19.40;;;17.95;;
58982;SDS011;44771;49.982;8.560;2023-02-28T04:09:59;18.45;;;17.02;;
58982;SDS011;44771;49.982;8.560;2023-02-28T04:15:01;18.90;;;17.15;;
58982;SDS011;44771;49.982;8.560;2023-02-28T04:20:03;19.10;;;17.50;;
58982;SDS011;44771;49.982;8.560;2023-02-28T04:25:07;19.55;;;18.05;;
58982;SDS011;44771;49.982;8.560;2023-02-28T04:30:10;18.83;;;17.42;;
58982;SDS011;44771;49.982;8.560;2023-02-28T04:35:12;18.95;;;17.55;;
58982;SDS011;44771;49.982;8.560;2023-02-28T04:40:15;17.37;;;15.80;;
58982;SDS011;44771;49.982;8.560;2023-02-28T04:45:17;19.83;;;18.23;;
58982;SDS011;44771;49.982;8.560;2023-02-28T04:50:19;17.50;;;16.05;;
58982;SDS011;44771;49.982;8.560;2023-02-28T04:55:22;18.27;;;16.87;;
58982;SDS011;44771;49.982;8.560;2023-02-28T05:00:23;18.87;;;17.42;;
58982;SDS011;44771;49.982;8.560;2023-02-28T05:05:25;16.83;;;15.48;;
58982;SDS011;44771;49.982;8.560;2023-02-28T05:10:28;16.85;;;15.38;;
58982;SDS011;44771;49.982;8.560;2023-02-28T05:15:30;17.23;;;16.02;;
58982;SDS011;44771;49.982;8.560;2023-02-28T05:20:33;16.77;;;15.63;;
58982;SDS011;44771;49.982;8.560;2023-02-28T05:25:36;18.00;;;16.52;;
58982;SDS011;44771;49.982;8.560;2023-02-28T05:30:38;20.12;;;18.62;;
58982;SDS011;44771;49.982;8.560;2023-02-28T05:35:40;19.87;;;17.80;;
58982;SDS011;44771;49.982;8.560;2023-02-28T05:40:43;17.73;;;16.33;;
58982;SDS011;44771;49.982;8.560;2023-02-28T05:45:45;18.77;;;17.25;;
58982;SDS011;44771;49.982;8.560;2023-02-28T05:50:47;18.65;;;17.25;;
58982;SDS011;44771;49.982;8.560;2023-02-28T05:55:50;18.55;;;17.25;;
58982;SDS011;44771;49.982;8.560;2023-02-28T06:00:51;18.83;;;17.42;;
58982;SDS011;44771;49.982;8.560;2023-02-28T06:05:53;18.50;;;16.98;;
58982;SDS011;44771;49.982;8.560;2023-02-28T06:10:56;19.05;;;17.37;;
58982;SDS011;44771;49.982;8.560;2023-02-28T06:16:00;17.70;;;16.40;;
58982;SDS011;44771;49.982;8.560;2023-02-28T06:21:02;19.85;;;17.85;;
58982;SDS011;44771;49.982;8.560;2023-02-28T06:26:05;19.33;;;17.62;;
58982;SDS011;44771;49.982;8.560;2023-02-28T06:31:07;20.97;;;19.17;;
58982;SDS011;44771;49.982;8.560;2023-02-28T06:36:11;16.90;;;15.13;;
58982;SDS011;44771;49.982;8.560;2023-02-28T06:41:14;19.62;;;17.92;;
58982;SDS011;44771;49.982;8.560;2023-02-28T06:46:16;18.45;;;16.85;;
58982;SDS011;44771;49.982;8.560;2023-02-28T06:51:18;18.48;;;16.95;;
58982;SDS011;44771;49.982;8.560;2023-02-28T06:56:22;19.70;;;17.90;;
58982;SDS011;44771;49.982;8.560;2023-02-28T07:01:24;17.85;;;16.45;;
58982;SDS011;44771;49.982;8.560;2023-02-28T07:06:26;17.92;;;16.73;;
58982;SDS011;44771;49.982;8.560;2023-02-28T07:11:30;17.05;;;15.68;;
58982;SDS011;44771;49.982;8.560;2023-02-28T07:16:32;18.23;;;16.73;;
58982;SDS011;44771;49.982;8.560;2023-02-28T07:21:34;18.77;;;17.48;;
58982;SDS011;44771;49.982;8.560;2023-02-28T07:26:37;18.67;;;17.10;;
58982;SDS011;44771;49.982;8.560;2023-02-28T07:31:39;18.83;;;17.17;;
58982;SDS011;44771;49.982;8.560;2023-02-28T07:36:41;18.02;;;16.33;;
58982;SDS011;44771;49.982;8.560;2023-02-28T07:41:44;17.92;;;16.52;;
58982;SDS011;44771;49.982;8.560;2023-02-28T07:46:45;19.33;;;17.70;;
58982;SDS011;44771;49.982;8.560;2023-02-28T07:51:47;18.12;;;16.70;;
58982;SDS011;44771;49.982;8.560;2023-02-28T07:56:50;17.25;;;15.77;;
58982;SDS011;44771;49.982;8.560;2023-02-28T08:01:52;17.17;;;16.08;;
58982;SDS011;44771;49.982;8.560;2023-02-28T08:06:53;16.45;;;15.25;;
58982;SDS011;44771;49.982;8.560;2023-02-28T08:11:57;18.15;;;16.85;;
58982;SDS011;44771;49.982;8.560;2023-02-28T08:16:58;17.70;;;16.33;;
58982;SDS011;44771;49.982;8.560;2023-02-28T08:22:00;19.05;;;17.00;;
58982;SDS011;44771;49.982;8.560;2023-02-28T08:27:03;18.73;;;17.33;;
58982;SDS011;44771;49.982;8.560;2023-02-28T08:32:05;18.27;;;16.87;;
58982;SDS011;44771;49.982;8.560;2023-02-28T08:37:14;16.55;;;15.45;;
58982;SDS011;44771;49.982;8.560;2023-02-28T08:42:17;18.70;;;17.37;;
58982;SDS011;44771;49.982;8.560;2023-02-28T08:47:19;16.85;;;15.75;;
58982;SDS011;44771;49.982;8.560;2023-02-28T08:52:21;19.27;;;17.83;;
58982;SDS011;44771;49.982;8.560;2023-02-28T08:57:24;16.85;;;15.55;;
58982;SDS011;44771;49.982;8.560;2023-02-28T09:02:26;16.20;;;15.00;;
58982;SDS011;44771;49.982;8.560;2023-02-28T09:07:28;18.17;;;16.87;;
58982;SDS011;44771;49.982;8.560;2023-02-28T09:12:33;17.25;;;15.95;;
58982;SDS011;44771;49.982;8.560;2023-02-28T09:17:35;17.77;;;16.50;;
58982;SDS011;44771;49.982;8.560;2023-02-28T09:22:37;17.70;;;16.42;;
58982;SDS011;44771;49.982;8.560;2023-02-28T09:27:40;17.12;;;15.93;;
58982;SDS011;44771;49.982;8.560;2023-02-28T09:32:43;18.58;;;16.95;;
58982;SDS011;44771;49.982;8.560;2023-02-28T09:37:44;17.15;;;15.65;;
58982;SDS011;44771;49.982;8.560;2023-02-28T09:42:48;19.10;;;17.55;;
58982;SDS011;44771;49.982;8.560;2023-02-28T09:47:52;17.65;;;16.10;;
58982;SDS011;44771;49.982;8.560;2023-02-28T09:52:57;16.75;;;15.30;;
58982;SDS011;44771;49.982;8.560;2023-02-28T09:58:01;17.02;;;15.73;;
58982;SDS011;44771;49.982;8.560;2023-02-28T10:03:05;18.00;;;16.70;;
58982;SDS011;44771;49.982;8.560;2023-02-28T10:08:23;17.70;;;16.27;;
58982;SDS011;44771;49.982;8.560;2023-02-28T10:13:31;18.42;;;17.02;;
58982;SDS011;44771;49.982;8.560;2023-02-28T10:18:39;17.67;;;16.17;;
58982;SDS011;44771;49.982;8.560;2023-02-28T10:23:44;18.90;;;17.02;;
58982;SDS011;44771;49.982;8.560;2023-02-28T10:28:48;17.65;;;16.27;;
58982;SDS011;44771;49.982;8.560;2023-02-28T10:33:50;16.80;;;15.50;;
58982;SDS011;44771;49.982;8.560;2023-02-28T10:38:51;18.77;;;16.83;;
58982;SDS011;44771;49.982;8.560;2023-02-28T10:43:55;17.77;;;16.33;;
58982;SDS011;44771;49.982;8.560;2023-02-28T10:49:15;18.73;;;17.33;;
58982;SDS011;44771;49.982;8.560;2023-02-28T10:54:22;17.58;;;16.00;;
58982;SDS011;44771;49.982;8.560;2023-02-28T10:59:31;17.92;;;16.37;;
58982;SDS011;44771;49.982;8.560;2023-02-28T11:04:34;18.05;;;16.65;;
58982;SDS011;44771;49.982;8.560;2023-02-28T11:09:38;17.93;;;16.53;;
58982;SDS011;44771;49.982;8.560;2023-02-28T11:14:47;17.97;;;16.47;;
58982;SDS011;44771;49.982;8.560;2023-02-28T11:19:51;18.55;;;16.90;;
58982;SDS011;44771;49.982;8.560;2023-02-28T11:24:59;18.50;;;16.80;;
58982;SDS011;44771;49.982;8.560;2023-02-28T11:30:11;19.23;;;17.60;;
58982;SDS011;44771;49.982;8.560;2023-02-28T11:35:29;17.27;;;15.77;;
58982;SDS011;44771;49.982;8.560;2023-02-28T11:40:36;17.70;;;16.10;;
58982;SDS011;44771;49.982;8.560;2023-02-28T11:45:48;18.95;;;17.37;;
58982;SDS011;44771;49.982;8.560;2023-02-28T11:51:07;17.12;;;15.77;;
58982;SDS011;44771;49.982;8.560;2023-02-28T11:56:17;17.02;;;15.52;;
58982;SDS011;44771;49.982;8.560;2023-02-28T12:01:31;16.95;;;15.48;;
58982;SDS011;44771;49.982;8.560;2023-02-28T12:11:48;17.87;;;16.37;;
58982;SDS011;44771;49.982;8.560;2023-02-28T12:17:00;15.43;;;14.23;;
58982;SDS011;44771;49.982;8.560;2023-02-28T12:22:23;17.98;;;16.42;;
58982;SDS011;44771;49.982;8.560;2023-02-28T12:27:30;18.37;;;16.83;;
58982;SDS011;44771;49.982;8.560;2023-02-28T12:32:39;17.23;;;15.93;;
58982;SDS011;44771;49.982;8.560;2023-02-28T12:37:46;16.23;;;15.00;;
58982;SDS011;44771;49.982;8.560;2023-02-28T12:42:54;16.77;;;15.27;;
58982;SDS011;44771;49.982;8.560;2023-02-28T12:48:02;17.55;;;16.05;;
58982;SDS011;44771;49.982;8.560;2023-02-28T12:53:09;18.92;;;16.98;;
58982;SDS011;44771;49.982;8.560;2023-02-28T12:58:17;18.48;;;16.85;;
58982;SDS011;44771;49.982;8.560;2023-02-28T13:03:33;18.30;;;16.75;;
58982;SDS011;44771;49.982;8.560;2023-02-28T13:08:53;18.42;;;16.75;;
58982;SDS011;44771;49.982;8.560;2023-02-28T13:14:03;18.37;;;16.75;;
58982;SDS011;44771;49.982;8.560;2023-02-28T13:24:12;19.20;;;17.60;;
58982;SDS011;44771;49.982;8.560;2023-02-28T13:29:41;18.12;;;16.65;;
58982;SDS011;44771;49.982;8.560;2023-02-28T13:35:11;17.40;;;15.75;;
58982;SDS011;44771;49.982;8.560;2023-02-28T13:40:41;17.70;;;15.75;;
58982;SDS011;44771;49.982;8.560;2023-02-28T13:45:55;17.23;;;15.85;;
58982;SDS011;44771;49.982;8.560;2023-02-28T13:56:43;17.83;;;16.23;;
58982;SDS011;44771;49.982;8.560;2023-02-28T14:01:57;17.85;;;16.08;;
58982;SDS011;44771;49.982;8.560;2023-02-28T14:07:16;18.65;;;17.05;;
58982;SDS011;44771;49.982;8.560;2023-02-28T14:18:02;19.25;;;17.33;;
58982;SDS011;44771;49.982;8.560;2023-02-28T14:23:08;19.15;;;16.98;;
58982;SDS011;44771;49.982;8.560;2023-02-28T14:28:18;19.62;;;16.65;;
58982;SDS011;44771;49.982;8.560;2023-02-28T14:33:32;20.90;;;18.95;;
58982;SDS011;44771;49.982;8.560;2023-02-28T14:38:44;18.98;;;17.40;;
58982;SDS011;44771;49.982;8.560;2023-02-28T14:43:50;18.00;;;16.60;;
58982;SDS011;44771;49.982;8.560;2023-02-28T14:48:53;19.12;;;17.42;;
58982;SDS011;44771;49.982;8.560;2023-02-28T14:53:57;20.40;;;18.42;;
58982;SDS011;44771;49.982;8.560;2023-02-28T14:59:01;17.17;;;15.80;;
58982;SDS011;44771;49.982;8.560;2023-02-28T15:04:05;18.60;;;16.97;;
58982;SDS011;44771;49.982;8.560;2023-02-28T15:09:16;18.37;;;16.62;;
58982;SDS011;44771;49.982;8.560;2023-02-28T15:14:20;19.30;;;17.62;;
58982;SDS011;44771;49.982;8.560;2023-02-28T15:19:23;18.75;;;17.27;;
58982;SDS011;44771;49.982;8.560;2023-02-28T15:24:30;18.77;;;17.08;;
58982;SDS011;44771;49.982;8.560;2023-02-28T15:29:44;20.25;;;18.58;;
58982;SDS011;44771;49.982;8.560;2023-02-28T15:34:47;18.42;;;16.80;;
58982;SDS011;44771;49.982;8.560;2023-02-28T15:39:49;20.37;;;18.17;;
58982;SDS011;44771;49.982;8.560;2023-02-28T15:44:52;20.10;;;17.25;;
58982;SDS011;44771;49.982;8.560;2023-02-28T15:49:55;18.15;;;16.65;;
58982;SDS011;44771;49.982;8.560;2023-02-28T15:54:59;18.67;;;17.17;;
58982;SDS011;44771;49.982;8.560;2023-02-28T16:00:12;18.98;;;17.37;;
58982;SDS011;44771;49.982;8.560;2023-02-28T16:05:23;17.75;;;16.15;;
58982;SDS011;44771;49.982;8.560;2023-02-28T16:10:26;18.80;;;17.10;;
58982;SDS011;44771;49.982;8.560;2023-02-28T16:15:31;19.48;;;17.60;;
58982;SDS011;44771;49.982;8.560;2023-02-28T16:20:38;19.90;;;17.98;;
58982;SDS011;44771;49.982;8.560;2023-02-28T16:25:42;19.30;;;17.70;;
58982;SDS011;44771;49.982;8.560;2023-02-28T16:30:46;21.17;;;19.12;;
58982;SDS011;44771;49.982;8.560;2023-02-28T16:35:48;18.92;;;17.10;;
58982;SDS011;44771;49.982;8.560;2023-02-28T16:40:50;20.35;;;18.25;;
58982;SDS011;44771;49.982;8.560;2023-02-28T16:45:55;19.30;;;17.33;;
58982;SDS011;44771;49.982;8.560;2023-02-28T16:51:01;20.37;;;18.67;;
58982;SDS011;44771;49.982;8.560;2023-02-28T16:56:03;21.02;;;18.85;;
58982;SDS011;44771;49.982;8.560;2023-02-28T17:01:06;20.35;;;18.60;;
58982;SDS011;44771;49.982;8.560;2023-02-28T17:06:13;19.87;;;17.83;;
58982;SDS011;44771;49.982;8.560;2023-02-28T17:11:18;20.35;;;18.65;;
58982;SDS011;44771;49.982;8.560;2023-02-28T17:16:24;20.92;;;18.83;;
58982;SDS011;44771;49.982;8.560;2023-02-28T17:21:29;21.48;;;19.30;;
58982;SDS011;44771;49.982;8.560;2023-02-28T17:26:32;19.58;;;17.70;;
58982;SDS011;44771;49.982;8.560;2023-02-28T17:31:35;20.25;;;18.60;;
58982;SDS011;44771;49.982;8.560;2023-02-28T17:36:37;21.33;;;19.42;;
58982;SDS011;44771;49.982;8.560;2023-02-28T17:41:43;22.60;;;18.42;;
58982;SDS011;44771;49.982;8.560;2023-02-28T17:46:47;22.10;;;19.85;;
58982;SDS011;44771;49.982;8.560;2023-02-28T17:51:49;21.90;;;19.87;;
58982;SDS011;44771;49.982;8.560;2023-02-28T17:56:51;21.33;;;19.37;;
58982;SDS011;44771;49.982;8.560;2023-02-28T18:01:54;22.33;;;20.00;;
58982;SDS011;44771;49.982;8.560;2023-02-28T18:06:55;21.83;;;19.67;;
58982;SDS011;44771;49.982;8.560;2023-02-28T18:11:57;20.23;;;18.25;;
58982;SDS011;44771;49.982;8.560;2023-02-28T18:17:00;20.95;;;19.10;;
58982;SDS011;44771;49.982;8.560;2023-02-28T18:22:02;22.92;;;18.77;;
58982;SDS011;44771;49.982;8.560;2023-02-28T18:27:03;21.12;;;19.12;;
58982;SDS011;44771;49.982;8.560;2023-02-28T18:32:06;21.12;;;19.05;;
58982;SDS011;44771;49.982;8.560;2023-02-28T18:37:08;20.00;;;18.17;;
58982;SDS011;44771;49.982;8.560;2023-02-28T18:42:10;21.15;;;19.08;;
58982;SDS011;44771;49.982;8.560;2023-02-28T18:47:13;21.90;;;19.58;;
58982;SDS011;44771;49.982;8.560;2023-02-28T18:52:15;21.48;;;19.58;;
58982;SDS011;44771;49.982;8.560;2023-02-28T18:57:17;20.77;;;18.75;;
58982;SDS011;44771;49.982;8.560;2023-02-28T19:02:20;21.17;;;19.00;;
58982;SDS011;44771;49.982;8.560;2023-02-28T19:07:22;21.58;;;19.50;;
58982;SDS011;44771;49.982;8.560;2023-02-28T19:12:23;24.55;;;20.15;;
58982;SDS011;44771;49.982;8.560;2023-02-28T19:17:26;19.85;;;18.05;;
58982;SDS011;44771;49.982;8.560;2023-02-28T19:22:28;22.08;;;19.40;;
58982;SDS011;44771;49.982;8.560;2023-02-28T19:27:33;21.73;;;19.08;;
58982;SDS011;44771;49.982;8.560;2023-02-28T19:32:36;20.45;;;18.30;;
58982;SDS011;44771;49.982;8.560;2023-02-28T19:37:38;31.35;;;23.62;;
58982;SDS011;44771;49.982;8.560;2023-02-28T19:42:40;22.60;;;20.40;;
58982;SDS011;44771;49.982;8.560;2023-02-28T19:47:43;21.23;;;19.33;;
58982;SDS011;44771;49.982;8.560;2023-02-28T19:52:45;22.98;;;20.90;;
58982;SDS011;44771;49.982;8.560;2023-02-28T19:57:47;26.73;;;21.33;;
58982;SDS011;44771;49.982;8.560;2023-02-28T20:02:50;23.10;;;20.10;;
58982;SDS011;44771;49.982;8.560;2023-02-28T20:07:52;22.62;;;20.37;;
58982;SDS011;44771;49.982;8.560;2023-02-28T20:12:54;22.60;;;20.50;;
58982;SDS011;44771;49.982;8.560;2023-02-28T20:17:57;23.10;;;21.08;;
58982;SDS011;44771;49.982;8.560;2023-02-28T20:22:59;28.27;;;20.92;;
58982;SDS011;44771;49.982;8.560;2023-02-28T20:28:00;21.95;;;19.40;;
58982;SDS011;44771;49.982;8.560;2023-02-28T20:33:03;22.25;;;20.05;;
58982;SDS011;44771;49.982;8.560;2023-02-28T20:38:05;26.30;;;21.52;;
58982;SDS011;44771;49.982;8.560;2023-02-28T20:43:07;22.80;;;20.27;;
58982;SDS011;44771;49.982;8.560;2023-02-28T20:48:10;22.02;;;19.67;;
58982;SDS011;44771;49.982;8.560;2023-02-28T20:53:12;23.42;;;20.65;;
58982;SDS011;44771;49.982;8.560;2023-02-28T20:58:13;23.73;;;21.23;;
58982;SDS011;44771;49.982;8.560;2023-02-28T21:03:16;24.52;;;21.23;;
58982;SDS011;44771;49.982;8.560;2023-02-28T21:08:18;24.65;;;20.58;;
58982;SDS011;44771;49.982;8.560;2023-02-28T21:13:20;25.30;;;21.60;;
58982;SDS011;44771;49.982;8.560;2023-02-28T21:18:26;28.25;;;21.95;;
58982;SDS011;44771;49.982;8.560;2023-02-28T21:23:28;25.17;;;20.50;;
58982;SDS011;44771;49.982;8.560;2023-02-28T21:28:30;24.23;;;21.77;;
58982;SDS011;44771;49.982;8.560;2023-02-28T21:33:34;22.98;;;20.67;;
58982;SDS011;44771;49.982;8.560;2023-02-28T21:38:36;27.75;;;21.85;;
58982;SDS011;44771;49.982;8.560;2023-02-28T21:43:39;23.20;;;20.33;;
58982;SDS011;44771;49.982;8.560;2023-02-28T21:48:42;23.65;;;21.15;;
58982;SDS011;44771;49.982;8.560;2023-02-28T21:53:44;24.42;;;21.67;;
58982;SDS011;44771;49.982;8.560;2023-02-28T21:58:47;27.83;;;22.42;;
58982;SDS011;44771;49.982;8.560;2023-02-28T22:03:51;27.27;;;22.80;;
58982;SDS011;44771;49.982;8.560;2023-02-28T22:08:53;23.85;;;21.35;;
58982;SDS011;44771;49.982;8.560;2023-02-28T22:13:57;24.03;;;21.53;;
58982;SDS011;44771;49.982;8.560;2023-02-28T22:19:00;27.27;;;23.58;;
58982;SDS011;44771;49.982;8.560;2023-02-28T22:24:02;25.58;;;21.50;;
58982;SDS011;44771;49.982;8.560;2023-02-28T22:29:05;29.00;;;23.05;;
58982;SDS011;44771;49.982;8.560;2023-02-28T22:34:09;35.88;;;23.20;;
58982;SDS011;44771;49.982;8.560;2023-02-28T22:39:12;29.48;;;21.27;;
58982;SDS011;44771;49.982;8.560;2023-02-28T22:44:13;27.42;;;22.75;;
58982;SDS011;44771;49.982;8.560;2023-02-28T22:49:16;30.37;;;22.87;;
58982;SDS011;44771;49.982;8.560;2023-02-28T22:54:18;24.80;;;22.05;;
58982;SDS011;44771;49.982;8.560;2023-02-28T22:59:20;29.48;;;23.02;;
58982;SDS011;44771;49.982;8.560;2023-02-28T23:04:23;27.20;;;23.85;;
58982;SDS011;44771;49.982;8.560;2023-02-28T23:09:25;27.87;;;22.90;;
58982;SDS011;44771;49.982;8.560;2023-02-28T23:14:27;30.77;;;23.92;;
58982;SDS011;44771;49.982;8.560;2023-02-28T23:19:30;31.05;;;22.45;;
58982;SDS011;44771;49.982;8.560;2023-02-28T23:24:32;29.70;;;23.23;;
58982;SDS011;44771;49.982;8.560;2023-02-28T23:29:35;39.20;;;24.63;;
58982;SDS011;44771;49.982;8.560;2023-02-28T23:34:38;32.90;;;23.73;;
58982;SDS011;44771;49.982;8.560;2023-02-28T23:39:40;28.52;;;23.62;;
58982;SDS011;44771;49.982;8.560;2023-02-28T23:44:42;27.73;;;23.05;;
58982;SDS011;44771;49.982;8.560;2023-02-28T23:49:45;36.83;;;24.83;;
58982;SDS011;44771;49.982;8.560;2023-02-28T23:54:46;28.70;;;24.50;;
58982;SDS011;44771;49.982;8.560;2023-02-28T23:59:48;31.80;;;25.75;;
